Time;durP1;ratioP1;P1;durP2;ratioP2;P2;SDS_P1;SDS_P2;PMS_P1;PMS_P2;Temp;Humidity;BMP_temperature;BMP_pressure;BME280_temperature;BME280_humidity;BME280_pressure;Samples;Min_cycle;Max_cycle;Signal;HPM_P1;HPM_P2
2022/07/07 00:01:21;;;;;;;2.22;1.30;;;24.20;46.70;23.30;101538.00;;;;5022700;28;20114;-73
2022/07/07 00:04:08;;;;;;;2.40;1.25;;;24.20;46.70;23.30;101532.00;;;;5026107;28;20267;-73
2022/07/07 00:06:54;;;;;;;2.13;1.30;;;24.20;46.70;23.30;101525.00;;;;5022297;28;20052;-73
2022/07/07 00:09:40;;;;;;;1.63;1.20;;;24.20;46.80;23.30;101522.00;;;;5023454;28;20392;-73
2022/07/07 00:12:26;;;;;;;4.30;1.50;;;24.20;46.80;23.30;101522.00;;;;5007126;28;20041;-73
2022/07/07 00:15:12;;;;;;;2.78;1.50;;;24.20;46.80;23.30;101510.00;;;;5024628;28;20065;-72
2022/07/07 00:17:58;;;;;;;1.98;1.20;;;24.20;46.90;23.30;101514.00;;;;5022659;28;20053;-73
2022/07/07 00:20:44;;;;;;;2.22;1.30;;;24.20;46.90;23.30;101510.00;;;;5018907;28;20058;-73
2022/07/07 00:23:30;;;;;;;2.20;1.23;;;24.20;47.00;23.30;101511.00;;;;5019451;28;20045;-73
2022/07/07 00:26:16;;;;;;;1.70;1.50;;;24.20;47.00;23.30;101510.00;;;;5015250;28;20033;-73
2022/07/07 00:29:02;;;;;;;2.15;1.27;;;24.20;47.00;23.30;101504.00;;;;5024093;28;20038;-73
2022/07/07 00:31:48;;;;;;;4.35;1.63;;;24.20;47.10;23.30;101505.00;;;;5021879;28;20107;-73
2022/07/07 00:34:35;;;;;;;2.33;1.40;;;24.20;47.20;23.30;101493.00;;;;5019442;28;20296;-73
2022/07/07 00:37:21;;;;;;;3.42;1.50;;;24.20;47.20;23.30;101490.00;;;;5027726;28;20099;-73
2022/07/07 00:40:08;;;;;;;3.00;1.40;;;24.20;47.30;23.30;101477.00;;;;5018129;28;20061;-73
2022/07/07 00:42:54;;;;;;;2.20;1.55;;;24.20;47.30;23.30;101474.00;;;;5022452;28;20554;-73
2022/07/07 00:45:40;;;;;;;3.00;1.77;;;24.20;47.40;23.30;101472.00;;;;5015347;28;20037;-73
2022/07/07 00:48:26;;;;;;;2.05;1.45;;;24.20;47.50;23.30;101465.00;;;;5022503;28;20475;-72
2022/07/07 00:51:12;;;;;;;2.78;1.88;;;24.20;47.50;23.30;101464.00;;;;5022935;28;20041;-73
2022/07/07 00:53:58;;;;;;;3.22;1.58;;;24.20;47.50;23.30;101461.00;;;;5018326;28;20045;-72
2022/07/07 00:56:44;;;;;;;2.45;1.65;;;24.20;47.60;23.30;101465.00;;;;5019445;28;20048;-73
2022/07/07 00:59:31;;;;;;;2.22;1.50;;;24.20;47.60;23.30;101462.00;;;;5022938;28;20038;-73
2022/07/07 01:02:17;;;;;;;4.00;1.90;;;24.20;47.70;23.30;101463.00;;;;5023551;28;20059;-72
2022/07/07 01:05:06;;;;;;;2.58;1.50;;;24.20;47.60;23.30;101458.00;;;;5021495;28;20292;-72
2022/07/07 01:07:52;;;;;;;1.90;1.35;;;24.20;47.70;23.30;101458.00;;;;5021783;28;20052;-72
2022/07/07 01:10:38;;;;;;;2.03;1.50;;;24.20;47.70;23.30;101448.00;;;;5041005;28;20043;-72
2022/07/07 01:13:24;;;;;;;4.05;2.05;;;24.20;48.10;23.30;101436.00;;;;5019552;28;20068;-72
2022/07/07 01:16:10;;;;;;;4.13;1.38;;;24.20;47.80;23.30;101433.00;;;;5026205;28;20076;-73
2022/07/07 01:18:56;;;;;;;2.55;1.90;;;24.20;47.80;23.30;101434.00;;;;5024416;28;20041;-72
2022/07/07 01:22:12;;;;;;;3.35;2.00;;;24.20;47.90;23.30;101431.00;;;;5017640;28;20052;-72
2022/07/07 01:24:58;;;;;;;4.38;1.80;;;24.20;47.90;23.30;101418.00;;;;5054532;28;20137;-72
2022/07/07 01:27:44;;;;;;;1.92;1.55;;;24.20;47.90;23.30;101416.00;;;;5023580;28;20495;-72
2022/07/07 01:30:30;;;;;;;3.13;2.10;;;24.20;48.00;23.30;101401.00;;;;5025421;28;20037;-72
2022/07/07 01:33:16;;;;;;;2.67;2.00;;;24.20;47.90;23.30;101404.00;;;;5020199;28;20322;-72
2022/07/07 01:36:03;;;;;;;2.83;1.73;;;24.20;48.00;23.30;101398.00;;;;5027340;28;20037;-72
2022/07/07 01:38:49;;;;;;;2.08;1.77;;;24.20;48.00;23.30;101389.00;;;;5027827;28;20084;-72
2022/07/07 01:41:35;;;;;;;2.25;1.67;;;24.20;48.10;23.30;101393.00;;;;5019922;28;20038;-72
2022/07/07 01:44:21;;;;;;;3.50;2.10;;;24.20;48.10;23.30;101391.00;;;;5024893;28;20041;-72
2022/07/07 01:47:08;;;;;;;2.17;1.80;;;24.20;48.10;23.30;101388.00;;;;5025092;28;20041;-72
2022/07/07 01:49:54;;;;;;;3.63;1.80;;;24.10;48.10;23.30;101385.00;;;;5023995;28;20124;-73
2022/07/07 01:52:40;;;;;;;2.38;2.13;;;24.20;48.20;23.30;101388.00;;;;5024197;28;20568;-72
2022/07/07 01:55:26;;;;;;;2.45;1.73;;;24.20;48.20;23.30;101386.00;;;;5020609;28;20543;-73
2022/07/07 01:58:13;;;;;;;2.80;1.65;;;24.20;48.20;23.30;101384.00;;;;5022072;28;20045;-73
2022/07/07 02:00:59;;;;;;;2.45;1.30;;;24.20;48.20;23.30;101382.00;;;;5021587;28;20354;-73
2022/07/07 02:03:45;;;;;;;2.55;1.90;;;24.20;48.30;23.30;101380.00;;;;5019893;28;20033;-73
2022/07/07 02:06:32;;;;;;;3.55;1.95;;;24.20;48.30;23.30;101372.00;;;;5022280;28;20041;-73
2022/07/07 02:09:18;;;;;;;2.28;1.85;;;24.20;48.30;23.30;101371.00;;;;5026565;28;20047;-73
2022/07/07 02:12:04;;;;;;;4.82;1.92;;;24.20;48.40;23.30;101369.00;;;;5020315;28;20045;-73
2022/07/07 02:14:51;;;;;;;3.63;1.73;;;24.20;48.40;23.30;101371.00;;;;5018183;28;20045;-73
2022/07/07 02:17:37;;;;;;;3.08;1.70;;;24.20;48.40;23.30;101367.00;;;;5021671;28;20046;-73
2022/07/07 02:20:23;;;;;;;3.08;1.77;;;24.20;48.40;23.30;101351.00;;;;5022675;28;20038;-73
2022/07/07 02:23:09;;;;;;;2.42;1.85;;;24.20;48.50;23.30;101351.00;;;;5022880;28;20076;-73
2022/07/07 02:25:55;;;;;;;3.92;2.40;;;24.20;48.60;23.30;101361.00;;;;5021995;28;20403;-73
2022/07/07 02:28:41;;;;;;;2.35;1.63;;;24.20;48.60;23.30;101358.00;;;;5025100;28;20509;-73
2022/07/07 02:31:27;;;;;;;2.10;1.75;;;24.20;48.70;23.30;101343.00;;;;5021388;28;20128;-73
2022/07/07 02:34:13;;;;;;;2.85;2.42;;;24.20;48.80;23.30;101340.00;;;;5023979;28;20038;-73
2022/07/07 02:36:59;;;;;;;4.03;2.17;;;24.20;48.90;23.20;101338.00;;;;5020097;28;20037;-73
2022/07/07 02:39:45;;;;;;;3.83;2.47;;;24.10;48.90;23.20;101330.00;;;;5018108;28;20295;-72
2022/07/07 02:42:31;;;;;;;3.53;2.47;;;24.20;48.90;23.20;101339.00;;;;5021035;28;20033;-72
2022/07/07 02:45:18;;;;;;;3.45;2.33;;;24.10;49.00;23.20;101338.00;;;;5037416;28;20037;-73
2022/07/07 02:48:04;;;;;;;4.53;2.15;;;24.10;49.00;23.20;101334.00;;;;5052190;28;20207;-72
2022/07/07 02:50:50;;;;;;;4.25;2.60;;;24.10;49.10;23.20;101339.00;;;;5018238;28;20478;-73
2022/07/07 02:53:36;;;;;;;3.38;2.17;;;24.10;49.20;23.20;101333.00;;;;5024672;28;20077;-73
2022/07/07 02:56:22;;;;;;;3.20;2.15;;;24.00;49.20;23.20;101320.00;;;;5023245;28;20376;-73
2022/07/07 02:59:09;;;;;;;3.92;2.40;;;24.00;49.20;23.20;101319.00;;;;5025104;28;20046;-72
2022/07/07 03:01:55;;;;;;;2.83;2.33;;;24.10;49.30;23.20;101312.00;;;;5023121;28;20056;-73
2022/07/07 03:04:42;;;;;;;3.03;2.13;;;24.10;49.50;23.20;101318.00;;;;5017150;28;20100;-72
2022/07/07 03:07:28;;;;;;;2.45;2.25;;;24.10;49.50;23.20;101315.00;;;;5022855;28;20037;-73
2022/07/07 03:10:14;;;;;;;4.07;2.65;;;24.10;49.50;23.20;101320.00;;;;5028868;28;20032;-73
2022/07/07 03:13:00;;;;;;;2.25;1.83;;;24.10;49.70;23.20;101314.00;;;;5026619;28;20048;-73
2022/07/07 03:15:46;;;;;;;4.05;2.75;;;24.10;49.70;23.20;101311.00;;;;5026170;28;20088;-73
2022/07/07 03:18:32;;;;;;;4.03;2.50;;;24.10;49.80;23.20;101302.00;;;;5022304;28;20079;-73
2022/07/07 03:21:18;;;;;;;3.03;2.13;;;24.00;49.80;23.20;101301.00;;;;5024962;28;20045;-73
2022/07/07 03:24:05;;;;;;;4.03;2.60;;;24.10;50.00;23.20;101300.00;;;;5024770;28;20057;-73
2022/07/07 03:26:51;;;;;;;2.53;2.13;;;24.10;50.00;23.20;101291.00;;;;5025245;28;20049;-73
2022/07/07 03:29:37;;;;;;;2.92;1.90;;;24.10;50.00;23.20;101287.00;;;;5019727;28;20472;-72
2022/07/07 03:32:23;;;;;;;4.47;2.05;;;24.00;50.00;23.20;101286.00;;;;5020182;28;20063;-72
2022/07/07 03:35:09;;;;;;;2.35;2.05;;;24.00;50.10;23.20;101287.00;;;;5020242;28;20045;-72
2022/07/07 03:37:55;;;;;;;3.72;2.60;;;24.00;50.20;23.20;101278.00;;;;5023935;28;20192;-72
2022/07/07 03:40:41;;;;;;;3.47;2.38;;;24.10;50.20;23.20;101278.00;;;;5022684;28;20042;-72
2022/07/07 03:43:27;;;;;;;3.15;2.40;;;24.00;50.30;23.20;101275.00;;;;5021756;28;20034;-72
2022/07/07 03:46:13;;;;;;;2.80;2.42;;;24.10;50.40;23.20;101276.00;;;;5022427;28;20044;-72
2022/07/07 03:48:59;;;;;;;4.35;2.50;;;24.00;51.20;23.20;101275.00;;;;5024375;28;20045;-73
2022/07/07 03:51:45;;;;;;;4.68;2.20;;;24.00;50.50;23.20;101275.00;;;;5021774;28;20045;-73
2022/07/07 03:54:31;;;;;;;3.03;2.40;;;24.00;50.70;23.20;101274.00;;;;5017901;28;20314;-73
2022/07/07 03:57:18;;;;;;;2.92;2.38;;;24.00;50.70;23.20;101273.00;;;;5022431;28;20042;-73
2022/07/07 04:00:05;;;;;;;4.10;2.33;;;24.10;50.70;23.20;101281.00;;;;5026193;28;20046;-73
2022/07/07 04:02:51;;;;;;;2.58;1.90;;;24.00;50.80;23.20;101271.00;;;;5025628;28;20451;-73
2022/07/07 04:05:37;;;;;;;2.53;2.00;;;24.10;50.70;23.20;101275.00;;;;5023281;28;20050;-73
2022/07/07 04:08:23;;;;;;;3.00;2.10;;;24.00;50.80;23.20;101279.00;;;;5026693;28;20029;-72
2022/07/07 04:11:09;;;;;;;3.75;1.80;;;24.00;50.80;23.20;101280.00;;;;5023679;28;20660;-73
2022/07/07 04:13:55;;;;;;;2.15;1.83;;;24.00;50.80;23.20;101285.00;;;;5024761;28;20103;-72
2022/07/07 04:16:41;;;;;;;2.22;1.80;;;24.10;50.90;23.20;101282.00;;;;5022234;28;20048;-73
2022/07/07 04:19:27;;;;;;;2.58;1.95;;;24.10;51.00;23.20;101285.00;;;;5024049;28;20045;-73
2022/07/07 04:22:13;;;;;;;2.67;1.80;;;24.00;50.90;23.20;101280.00;;;;5021089;28;20040;-73
2022/07/07 04:24:59;;;;;;;4.05;1.60;;;24.00;50.80;23.20;101281.00;;;;5025606;28;20149;-73
2022/07/07 04:27:45;;;;;;;3.20;1.30;;;24.00;50.90;23.20;101289.00;;;;5027424;28;20196;-73
2022/07/07 04:30:32;;;;;;;4.93;2.22;;;24.00;50.90;23.20;101292.00;;;;5023961;28;20044;-73
2022/07/07 04:33:18;;;;;;;3.53;1.95;;;24.00;51.00;23.20;101288.00;;;;5035777;28;20041;-73
2022/07/07 04:36:04;;;;;;;2.00;1.33;;;24.00;51.00;23.20;101273.00;;;;5026148;28;20041;-73
2022/07/07 04:38:51;;;;;;;1.75;1.23;;;24.00;51.20;23.20;101268.00;;;;5020448;28;20058;-73
2022/07/07 04:41:37;;;;;;;2.47;1.38;;;24.00;51.10;23.20;101272.00;;;;5024919;28;20536;-73
2022/07/07 04:44:23;;;;;;;1.58;1.15;;;24.00;51.00;23.20;101264.00;;;;5020398;28;20407;-72
2022/07/07 04:47:09;;;;;;;1.70;1.13;;;24.00;51.00;23.20;101264.00;;;;5026417;28;20038;-73
2022/07/07 04:49:55;;;;;;;1.92;0.95;;;24.00;51.10;23.20;101260.00;;;;5016595;28;20048;-72
2022/07/07 04:52:41;;;;;;;0.90;0.90;;;24.00;51.00;23.20;101258.00;;;;5021939;28;20041;-72
2022/07/07 04:55:27;;;;;;;2.42;1.00;;;24.00;51.00;23.20;101264.00;;;;5027934;28;20099;-72
2022/07/07 04:58:13;;;;;;;3.42;1.15;;;24.00;51.10;23.20;101259.00;;;;5023006;28;20059;-72
2022/07/07 05:00:59;;;;;;;1.25;1.00;;;24.10;51.10;23.20;101261.00;;;;5025590;28;20044;-72
2022/07/07 05:03:45;;;;;;;0.85;0.80;;;24.00;51.00;23.20;101259.00;;;;5015883;28;20033;-73
2022/07/07 05:06:31;;;;;;;2.08;0.80;;;24.00;51.10;23.20;101260.00;;;;5016353;28;20065;-73
2022/07/07 05:09:17;;;;;;;1.23;0.80;;;24.00;51.10;23.20;101266.00;;;;5020074;28;20119;-72
2022/07/07 05:12:04;;;;;;;1.48;1.00;;;24.00;51.20;23.20;101272.00;;;;5021630;28;20056;-72
2022/07/07 05:14:50;;;;;;;2.13;0.90;;;24.00;51.20;23.20;101271.00;;;;5021805;28;20132;-72
2022/07/07 05:17:36;;;;;;;1.58;0.80;;;24.00;51.20;23.20;101269.00;;;;5022828;28;20052;-72
2022/07/07 05:20:23;;;;;;;1.13;0.80;;;24.00;51.10;23.20;101269.00;;;;5018796;28;20135;-72
2022/07/07 05:23:10;;;;;;;0.90;0.57;;;24.00;51.30;23.20;101266.00;;;;5022558;28;20716;-72
2022/07/07 05:25:56;;;;;;;1.63;0.73;;;24.10;51.30;23.20;101266.00;;;;5021761;28;20491;-72
2022/07/07 05:28:42;;;;;;;1.60;0.73;;;24.00;51.20;23.20;101270.00;;;;5022860;28;20468;-72
2022/07/07 05:31:28;;;;;;;0.95;0.60;;;24.00;51.30;23.20;101273.00;;;;5028755;28;20045;-72
2022/07/07 05:34:14;;;;;;;1.60;0.80;;;24.00;51.20;23.20;101281.00;;;;5016328;28;20120;-72
2022/07/07 05:37:00;;;;;;;2.00;0.70;;;24.00;51.30;23.20;101291.00;;;;5023868;28;20052;-72
2022/07/07 05:39:46;;;;;;;1.10;0.80;;;24.00;51.30;23.20;101287.00;;;;5016845;28;20053;-72
2022/07/07 05:42:32;;;;;;;0.75;0.60;;;24.00;51.30;23.20;101292.00;;;;5021344;28;20505;-72
2022/07/07 05:45:19;;;;;;;0.60;0.57;;;24.00;51.30;23.20;101290.00;;;;5019391;28;20076;-72
2022/07/07 05:48:06;;;;;;;1.00;0.70;;;24.00;51.30;23.20;101300.00;;;;5025470;28;20172;-72
2022/07/07 05:50:52;;;;;;;1.40;0.50;;;24.00;51.30;23.20;101299.00;;;;5024889;28;20502;-72
2022/07/07 05:53:38;;;;;;;1.13;0.68;;;24.00;51.20;23.20;101306.00;;;;5021539;28;20038;-72
2022/07/07 05:56:24;;;;;;;0.80;0.70;;;24.00;51.20;23.20;101318.00;;;;5022436;28;20489;-72
2022/07/07 05:59:10;;;;;;;0.63;0.60;;;24.00;51.20;23.20;101311.00;;;;5024847;28;20049;-72
2022/07/07 06:01:56;;;;;;;1.35;0.70;;;24.00;51.20;23.20;101320.00;;;;5021928;28;20059;-73
2022/07/07 06:04:42;;;;;;;0.70;0.50;;;24.00;51.30;23.20;101314.00;;;;5016496;28;20087;-73
2022/07/07 06:07:28;;;;;;;0.88;0.63;;;24.10;51.30;23.20;101319.00;;;;5026148;28;20037;-73
2022/07/07 06:10:14;;;;;;;2.00;0.57;;;24.10;51.20;23.20;101324.00;;;;5052746;28;20037;-73
2022/07/07 06:13:00;;;;;;;2.05;0.80;;;24.00;51.20;23.20;101331.00;;;;5021271;28;20107;-73
2022/07/07 06:15:46;;;;;;;1.05;0.65;;;24.00;51.20;23.20;101338.00;;;;5026597;28;20046;-72
2022/07/07 06:18:33;;;;;;;1.80;0.70;;;24.10;51.20;23.20;101352.00;;;;5024932;28;20052;-72
2022/07/07 06:21:19;;;;;;;2.10;0.55;;;24.10;51.20;23.20;101344.00;;;;5019329;28;20160;-73
2022/07/07 06:24:05;;;;;;;0.82;0.60;;;24.00;51.10;23.20;101339.00;;;;5021937;28;20045;-73
2022/07/07 06:26:51;;;;;;;1.85;0.70;;;24.00;51.10;23.20;101359.00;;;;5021489;28;20048;-73
2022/07/07 06:29:37;;;;;;;0.50;0.40;;;24.00;51.10;23.20;101356.00;;;;5024803;28;20091;-73
2022/07/07 06:32:23;;;;;;;3.13;0.93;;;24.10;51.80;23.20;101363.00;;;;5022055;28;20112;-72
2022/07/07 06:35:10;;;;;;;2.53;0.80;;;24.00;51.10;23.20;101370.00;;;;5023198;28;20111;-73
2022/07/07 06:37:57;;;;;;;1.60;0.60;;;23.90;51.00;23.20;101377.00;;;;5020250;28;20149;-73
2022/07/07 06:40:43;;;;;;;0.98;0.52;;;24.00;51.10;23.20;101383.00;;;;5026493;28;20498;-73
2022/07/07 06:43:29;;;;;;;2.05;0.70;;;24.00;51.00;23.20;101383.00;;;;5022697;28;20038;-73
2022/07/07 06:46:15;;;;;;;1.58;0.50;;;24.00;51.00;23.20;101379.00;;;;5020171;28;20395;-72
2022/07/07 06:49:01;;;;;;;1.10;0.60;;;24.00;51.00;23.20;101385.00;;;;5023814;28;20044;-73
2022/07/07 06:51:47;;;;;;;2.17;0.75;;;24.00;51.00;23.20;101389.00;;;;5021790;28;20069;-73
2022/07/07 06:54:33;;;;;;;1.25;0.40;;;24.00;51.60;23.20;101393.00;;;;5023000;28;20041;-73
2022/07/07 06:57:19;;;;;;;1.15;0.40;;;24.00;51.00;23.20;101391.00;;;;5021643;28;20037;-73
2022/07/07 07:00:08;;;;;;;2.78;0.55;;;24.00;51.00;23.20;101388.00;;;;5021517;28;20056;-73
2022/07/07 07:02:54;;;;;;;1.27;0.40;;;24.00;51.00;23.20;101400.00;;;;5023043;28;20041;-73
2022/07/07 07:05:40;;;;;;;0.68;0.50;;;24.00;50.90;23.20;101403.00;;;;5018813;28;20124;-73
2022/07/07 07:08:26;;;;;;;1.58;0.40;;;24.00;50.90;23.20;101410.00;;;;5020865;28;20423;-73
2022/07/07 07:11:12;;;;;;;0.80;0.52;;;24.10;51.70;23.20;101412.00;;;;5027049;28;20082;-73
2022/07/07 07:14:01;;;;;;;0.30;0.30;;;24.10;50.90;23.20;101415.00;;;;5024445;28;20038;-73
2022/07/07 07:16:47;;;;;;;2.15;0.43;;;24.10;50.90;23.20;101415.00;;;;5023190;28;20053;-73
2022/07/07 07:19:33;;;;;;;1.15;0.50;;;24.10;50.90;23.20;101421.00;;;;5020364;28;20042;-73
2022/07/07 07:22:19;;;;;;;0.98;0.57;;;24.10;50.90;23.20;101431.00;;;;5024561;28;20051;-73
2022/07/07 07:25:05;;;;;;;1.90;0.47;;;24.10;50.90;23.20;101432.00;;;;5023976;28;20042;-73
2022/07/07 07:27:51;;;;;;;2.50;0.60;;;24.00;50.80;23.20;101428.00;;;;5027033;28;20057;-73
2022/07/07 07:30:38;;;;;;;2.08;0.60;;;24.00;50.80;23.20;101433.00;;;;5024245;28;20060;-73
2022/07/07 07:33:25;;;;;;;0.82;0.40;;;24.10;50.90;23.20;101436.00;;;;5024585;28;20132;-81
2022/07/07 07:36:11;;;;;;;5.13;0.47;;;24.10;50.80;23.20;101434.00;;;;5027864;28;20091;-72
2022/07/07 07:38:58;;;;;;;1.10;0.40;;;24.00;50.80;23.20;101430.00;;;;5025603;28;20037;-71
2022/07/07 07:41:44;;;;;;;3.25;0.47;;;24.10;50.80;23.20;101440.00;;;;5028369;28;20483;-72
2022/07/07 07:47:39;;;;;;;2.80;0.57;;;24.10;50.80;23.20;101451.00;;;;5023859;28;20038;-71
2022/07/07 07:50:25;;;;;;;1.17;0.32;;;24.10;50.80;23.20;101444.00;;;;5029181;28;20038;-71
2022/07/07 07:53:11;;;;;;;1.65;0.30;;;24.10;50.80;23.20;101440.00;;;;5022133;28;20410;-71
2022/07/07 07:55:58;;;;;;;0.25;0.20;;;24.10;50.70;23.20;101447.00;;;;5029160;28;20086;-71
2022/07/07 07:58:44;;;;;;;0.73;0.40;;;24.10;50.80;23.20;101453.00;;;;5028614;28;20546;-73
2022/07/07 08:01:30;;;;;;;1.92;0.40;;;24.10;50.70;23.20;101454.00;;;;5024603;28;20095;-73
2022/07/07 08:04:16;;;;;;;2.33;0.40;;;24.10;50.80;23.20;101456.00;;;;5026124;28;20537;-73
2022/07/07 08:07:02;;;;;;;0.55;0.30;;;24.10;50.70;23.20;101456.00;;;;5025732;28;20044;-73
2022/07/07 08:09:48;;;;;;;0.57;0.30;;;24.10;50.70;23.20;101466.00;;;;5027152;28;20447;-73
2022/07/07 08:12:35;;;;;;;0.75;0.30;;;24.10;50.70;23.20;101463.00;;;;5024271;28;20056;-73
2022/07/07 08:15:21;;;;;;;2.47;0.40;;;24.10;50.70;23.20;101475.00;;;;5024941;28;20518;-72
2022/07/07 08:18:07;;;;;;;1.20;0.38;;;24.10;50.70;23.20;101471.00;;;;5028740;28;20033;-72
2022/07/07 08:20:53;;;;;;;0.60;0.28;;;24.10;50.80;23.20;101479.00;;;;5018768;28;20038;-72
2022/07/07 08:23:39;;;;;;;0.82;0.30;;;24.10;50.70;23.20;101477.00;;;;5025984;28;20403;-72
2022/07/07 08:26:26;;;;;;;1.08;0.32;;;24.10;50.60;23.20;101481.00;;;;5023596;28;20044;-72
2022/07/07 08:29:13;;;;;;;1.35;0.50;;;24.20;50.70;23.20;101473.00;;;;5030442;28;20386;-73
2022/07/07 08:31:59;;;;;;;1.98;0.50;;;24.10;50.60;23.20;101486.00;;;;5029867;28;20040;-72
2022/07/07 08:34:45;;;;;;;3.08;0.47;;;24.10;50.60;23.20;101489.00;;;;5020334;28;20048;-72
2022/07/07 08:37:31;;;;;;;2.45;0.38;;;24.10;50.60;23.20;101496.00;;;;5029193;28;20045;-73
2022/07/07 08:40:17;;;;;;;1.15;0.30;;;24.10;50.70;23.20;101494.00;;;;5025407;28;20479;-71
2022/07/07 08:43:03;;;;;;;1.33;0.40;;;24.10;50.60;23.20;101495.00;;;;5022211;28;20049;-72
2022/07/07 08:45:49;;;;;;;1.42;0.60;;;24.10;50.60;23.20;101498.00;;;;5028453;28;20127;-72
2022/07/07 08:48:35;;;;;;;1.58;0.63;;;24.10;50.60;23.20;101502.00;;;;5023161;28;20033;-72
2022/07/07 08:51:22;;;;;;;2.10;0.43;;;24.00;50.50;23.20;101504.00;;;;5023719;28;20044;-72
2022/07/07 08:54:12;;;;;;;1.40;0.38;;;24.10;50.50;23.20;101508.00;;;;5023855;28;20038;-73
2022/07/07 08:56:58;;;;;;;1.15;0.30;;;24.10;50.60;23.20;101513.00;;;;5021231;28;20041;-72
2022/07/07 08:59:45;;;;;;;2.85;1.33;;;24.10;50.50;23.20;101520.00;;;;5017862;28;20053;-72
2022/07/07 09:02:31;;;;;;;1.50;0.45;;;24.10;50.40;23.20;101532.00;;;;5020565;28;20037;-72
2022/07/07 09:05:17;;;;;;;3.25;0.60;;;24.20;50.50;23.20;101532.00;;;;5020360;28;20069;-72
2022/07/07 09:08:18;;;;;;;1.15;0.60;;;24.10;50.40;23.20;101538.00;;;;5018295;28;20030;-72
2022/07/07 09:11:07;;;;;;;0.82;0.30;;;24.10;50.50;23.20;101529.00;;;;5021779;28;20034;-72
2022/07/07 09:14:10;;;;;;;1.52;0.40;;;24.10;50.30;23.20;101530.00;;;;5024323;28;20487;-71
2022/07/07 09:16:56;;;;;;;2.55;0.50;;;24.10;50.40;23.20;101530.00;;;;5009189;28;20041;-72
2022/07/07 09:19:43;;;;;;;1.33;0.40;;;24.20;50.40;23.20;101530.00;;;;5019690;28;20454;-72
2022/07/07 09:22:49;;;;;;;0.30;0.30;;;24.20;50.40;23.20;101540.00;;;;5026240;28;20144;-72
2022/07/07 09:25:35;;;;;;;1.52;0.40;;;24.10;50.40;23.20;101553.00;;;;5027779;28;20450;-72
2022/07/07 09:28:21;;;;;;;0.90;0.57;;;24.10;50.30;23.20;101557.00;;;;5026352;28;20042;-72
2022/07/07 09:31:07;;;;;;;2.30;0.60;;;24.10;50.40;23.20;101558.00;;;;5029261;28;20147;-72
2022/07/07 09:34:13;;;;;;;1.05;0.40;;;24.10;50.30;23.20;101571.00;;;;5024283;28;20168;-72
2022/07/07 09:40:06;;;;;;;1.75;0.35;;;24.20;50.40;23.20;101569.00;;;;5024433;28;20049;-72
2022/07/07 09:42:52;;;;;;;0.87;0.20;;;24.20;50.30;23.20;101572.00;;;;5027647;28;20131;-72
2022/07/07 09:45:38;;;;;;;2.60;0.32;;;24.20;50.40;23.20;101565.00;;;;5005355;28;20445;-72
2022/07/07 09:48:25;;;;;;;1.50;0.52;;;24.20;50.40;23.20;101570.00;;;;5025177;28;20037;-72
2022/07/07 09:51:31;;;;;;;2.10;0.43;;;24.20;50.40;23.20;101567.00;;;;5021568;28;20051;-72
2022/07/07 09:54:17;;;;;;;2.50;0.63;;;24.10;50.40;23.20;101567.00;;;;5011143;28;20041;-72
2022/07/07 09:57:03;;;;;;;1.08;0.45;;;24.20;50.40;23.20;101567.00;;;;5028272;28;20100;-72
2022/07/07 09:59:49;;;;;;;0.85;0.40;;;24.10;50.30;23.20;101582.00;;;;5017460;28;20087;-72
2022/07/07 10:02:36;;;;;;;0.35;0.30;;;24.10;50.30;23.20;101597.00;;;;5023666;28;20466;-72
2022/07/07 10:05:23;;;;;;;1.90;0.40;;;24.10;50.30;23.20;101602.00;;;;5022883;28;20186;-72
2022/07/07 10:08:09;;;;;;;1.55;0.45;;;24.20;50.40;23.20;101604.00;;;;5013471;28;21628;-72
2022/07/07 10:10:55;;;;;;;0.70;0.35;;;24.20;50.40;23.20;101606.00;;;;5037777;28;20049;-72
2022/07/07 10:13:44;;;;;;;1.15;0.30;;;24.20;50.40;23.20;101608.00;;;;5019771;28;20049;-71
2022/07/07 10:16:30;;;;;;;1.25;0.47;;;24.20;50.40;23.20;101615.00;;;;5012878;28;20052;-71
2022/07/07 10:19:19;;;;;;;0.52;0.30;;;24.10;50.30;23.20;101625.00;;;;5019081;28;20056;-71
2022/07/07 10:22:07;;;;;;;1.30;0.30;;;24.20;50.40;23.20;101649.00;;;;5022229;28;20045;-71
2022/07/07 10:24:59;;;;;;;0.20;0.20;;;24.20;50.40;23.20;101651.00;;;;5036222;28;20112;-72
2022/07/07 10:27:45;;;;;;;0.68;0.30;;;24.20;50.40;23.20;101649.00;;;;5017954;28;20041;-71
2022/07/07 10:30:32;;;;;;;0.55;0.30;;;24.20;50.40;23.20;101645.00;;;;5020799;28;20041;-71
2022/07/07 10:33:18;;;;;;;1.33;0.30;;;24.20;50.40;23.30;101640.00;;;;5018041;28;20050;-72
2022/07/07 10:36:04;;;;;;;1.52;0.40;;;24.20;50.40;23.20;101639.00;;;;5035194;28;20046;-71
2022/07/07 10:38:52;;;;;;;0.82;0.30;;;24.20;50.40;23.30;101645.00;;;;5019261;28;20041;-71
2022/07/07 10:41:39;;;;;;;1.00;0.40;;;24.20;50.50;23.20;101652.00;;;;4996486;28;20068;-72
2022/07/07 10:44:26;;;;;;;0.73;0.40;;;24.20;50.50;23.30;101651.00;;;;5022034;28;20048;-72
2022/07/07 10:47:12;;;;;;;0.52;0.30;;;24.10;50.40;23.20;101646.00;;;;5021458;28;20137;-72
2022/07/07 10:49:59;;;;;;;1.63;0.30;;;24.10;50.50;23.20;101650.00;;;;5026320;28;20396;-72
2022/07/07 10:52:45;;;;;;;0.77;0.25;;;24.20;50.50;23.20;101647.00;;;;5020743;28;20042;-72
2022/07/07 10:55:52;;;;;;;2.25;0.40;;;24.20;50.50;23.20;101638.00;;;;5025590;28;20041;-72
2022/07/07 10:58:59;;;;;;;0.38;0.20;;;24.10;50.50;23.20;101658.00;;;;5021641;28;20084;-72
2022/07/07 11:02:00;;;;;;;0.10;0.05;;;24.10;50.50;23.20;101664.00;;;;5023295;28;20513;-72
2022/07/07 11:04:47;;;;;;;2.05;0.35;;;24.10;50.50;23.20;101661.00;;;;5023749;28;20136;-72
2022/07/07 11:07:33;;;;;;;0.60;0.25;;;24.10;50.50;23.20;101673.00;;;;5023417;28;20397;-72
2022/07/07 11:10:19;;;;;;;0.68;0.30;;;24.20;50.60;23.20;101674.00;;;;5024934;28;20086;-72
2022/07/07 11:13:21;;;;;;;0.63;0.20;;;24.10;50.60;23.20;101684.00;;;;5025857;28;20474;-73
2022/07/07 11:16:19;;;;;;;0.73;0.30;;;24.10;50.70;23.20;101674.00;;;;5028571;28;20064;-72
2022/07/07 11:19:05;;;;;;;0.28;0.10;;;24.10;50.70;23.20;101682.00;;;;5029205;28;20503;-71
2022/07/07 11:21:51;;;;;;;1.25;0.30;;;24.10;50.60;23.20;101679.00;;;;5040468;28;20041;-72
2022/07/07 11:24:37;;;;;;;1.13;0.20;;;24.20;50.70;23.20;101683.00;;;;5027847;28;20049;-71
2022/07/07 11:27:27;;;;;;;1.55;0.40;;;24.20;50.70;23.20;101682.00;;;;5027273;28;20044;-72
2022/07/07 11:30:13;;;;;;;0.57;0.30;;;24.10;50.60;23.30;101684.00;;;;5023656;28;20060;-72
2022/07/07 11:33:01;;;;;;;0.28;0.13;;;24.10;50.60;23.20;101678.00;;;;5025288;28;20041;-71
2022/07/07 11:35:47;;;;;;;0.35;0.10;;;24.20;50.70;23.30;101677.00;;;;5022474;28;20037;-71
2022/07/07 11:38:33;;;;;;;0.50;0.30;;;24.20;50.80;23.30;101685.00;;;;5024008;28;20038;-72
2022/07/07 11:41:19;;;;;;;0.52;0.38;;;24.20;50.70;23.30;101690.00;;;;5029864;28;20041;-71
2022/07/07 11:44:05;;;;;;;0.35;0.13;;;24.20;50.80;23.20;101699.00;;;;5028657;28;20042;-71
2022/07/07 11:46:52;;;;;;;0.90;0.20;;;24.20;50.70;23.20;101715.00;;;;5032580;28;20037;-71
2022/07/07 11:49:39;;;;;;;1.98;0.25;;;24.20;50.80;23.30;101721.00;;;;5025080;28;20538;-72
2022/07/07 11:52:25;;;;;;;0.30;0.20;;;24.20;50.80;23.20;101730.00;;;;5025917;28;20068;-72
2022/07/07 11:55:13;;;;;;;3.78;0.47;;;24.20;50.80;23.30;101723.00;;;;5032657;28;20276;-72
2022/07/07 11:58:04;;;;;;;0.10;0.10;;;24.20;50.80;23.30;101724.00;;;;5019495;28;20128;-72
2022/07/07 12:00:54;;;;;;;0.43;0.20;;;24.20;50.90;23.30;101727.00;;;;5027698;28;20045;-72
2022/07/07 12:03:40;;;;;;;1.33;0.30;;;24.20;50.90;23.30;101729.00;;;;5023354;28;20415;-72
2022/07/07 12:06:27;;;;;;;0.40;0.30;;;24.20;50.90;23.30;101721.00;;;;5021910;28;20046;-72
2022/07/07 12:09:13;;;;;;;1.20;0.22;;;24.20;50.90;23.30;101721.00;;;;5034920;28;20065;-72
2022/07/07 12:11:59;;;;;;;0.85;0.20;;;24.20;50.80;23.30;101721.00;;;;5038159;28;20392;-72
2022/07/07 12:14:45;;;;;;;0.98;0.28;;;24.20;50.90;23.30;101720.00;;;;5041279;28;20046;-72
2022/07/07 12:17:36;;;;;;;1.15;0.30;;;24.20;50.90;23.30;101723.00;;;;5017484;28;20532;-72
2022/07/07 12:20:22;;;;;;;0.30;0.20;;;24.20;51.00;23.30;101748.00;;;;5022527;28;20049;-72